• Join FlightAware (Why Join?)
  • Login
  • US Flag 
06:03AM EDT


 

Airport Tracker/Info


-or-


 

Live Flight TrackerFlight Track Log ✈ AVN11 ✈ 01-Jan-2014 ✈ YSSY / SYD - NVVV / VLI

Flight Track Log - Related Links

Times and Time Zones

All times are in EST time to prevent confusion due to time zone crossing. See the AVN11 flight status page for this flight to view local times or setup timezone preferences in your user account.

Time Position Orientation Groundspeed Altitude Reporting Facility
EST Latitude Longitude Course Direction KTS MPH feet Rate Location/Type
04:21AM -33.9604 151.1796 343° North 74 85  Level FlightAware ADS-B (YRAY)
04:21AM -33.9501 151.1770 348° North 145 167 600 Level FlightAware ADS-B (YRAY)
04:22AM -33.9349 151.1729 347° North 169 194 400 1,200 Climbing FlightAware ADS-B (YRAY)
04:22AM -33.9314 151.1719 348° North 168 193 500 2,400 Climbing FlightAware ADS-B (YRPA)
04:22AM -33.9189 151.1686 348° North 166 191 1,200 2,160 Climbing FlightAware ADS-B (YRAY)
04:22AM -33.9123 151.1669 348° North 178 205 1,600 1,380 Climbing FlightAware ADS-B
04:22AM -33.9036 151.1641 345° North 186 214 1,700 600 Climbing FlightAware ADS-B (YSSY / SYD)
04:23AM -33.8925 151.1542 323° Northwest 214 246 1,800 1,260 Climbing FlightAware ADS-B
04:23AM -33.8825 151.1407 312° West 230 265 2,400 2,220 Climbing FlightAware ADS-B
04:23AM -33.8595 151.1108 313° West 231 266 3,500 2,340 Climbing FlightAware ADS-B (YRAY)
04:24AM -33.8453 151.0929 314° West 235 270 4,200 2,160 Climbing FlightAware ADS-B (YRAY)
04:24AM -33.8415 151.0879 312° West 231 266 4,400 2,640 Climbing FlightAware ADS-B
04:24AM -33.8385 151.0839 312° West 231 266 4,600 1,140 Climbing FlightAware ADS-B
04:24AM -33.8241 151.0652 313° West 264 304 4,800 1,500 Climbing FlightAware ADS-B (YRPA)
04:24AM -33.8091 151.0464 314° West 231 266 5,500 2,520 Climbing FlightAware ADS-B
04:25AM -33.8182 151.0577 134° Southeast 266 306 6,200 2,520 Climbing FlightAware ADS-B
04:25AM -33.7794 151.0089 314° West 267 307 7,000 2,520 Climbing FlightAware ADS-B
04:25AM -33.7689 150.9964 316° Northwest 271 312 7,600 2,520 Climbing FlightAware ADS-B (YRAY)
04:25AM -33.7606 150.9904 329° Northwest 275 316 7,800 3,960 Climbing FlightAware ADS-B
04:25AM -33.7570 150.9889 340° North 277 319 8,200 3,420 Climbing FlightAware ADS-B (YSSY / SYD)
04:26AM -33.7526 150.9876 346° North 269 310 8,200 2,220 Level FlightAware ADS-B (YRPA)
04:26AM -33.7581 150.9893 165° South 289 333 8,800 3,000 Climbing FlightAware ADS-B
04:26AM -33.7271 150.9913 North 292 336 9,200 2,520 Climbing FlightAware ADS-B (YSSY / SYD)
04:26AM -33.7175 150.9982 31° Northeast 303 349 9,700 1,860 Climbing FlightAware ADS-B
04:26AM -33.7064 151.0115 45° Northeast 312 359 9,800 900 Climbing FlightAware ADS-B (YSSY / SYD)
04:26AM -33.6956 151.0345 61° Northeast 339 390 10,000 1,260 Climbing FlightAware ADS-B
04:27AM -33.6918 151.0507 74° East 348 400 10,300 1,800 Climbing FlightAware ADS-B (YRPA)
04:27AM -33.6903 151.0712 85° East 358 412 10,600 1,680 Climbing FlightAware ADS-B
04:27AM -33.6935 151.1005 98° East 368 423 11,000 2,580 Climbing FlightAware ADS-B (YSSY / SYD)
04:27AM -33.7036 151.1628 101° East 368 423 12,600 2,520 Climbing FlightAware ADS-B (YRAY)
04:28AM -33.7142 151.2305 101° East 386 444 13,700 1,980 Climbing FlightAware ADS-B
04:28AM -33.7156 151.2569 94° East 394 453 14,100 1,980 Climbing FlightAware ADS-B (YRPA)
04:28AM -33.7148 151.2673 85° East 400 460 14,300 1,980 Climbing FlightAware ADS-B
04:29AM -33.7061 151.3028 74° East 403 464 14,800 1,920 Climbing FlightAware ADS-B
04:29AM -33.6983 151.3198 61° Northeast 402 463 15,100 2,280 Climbing FlightAware ADS-B
04:29AM -33.6570 151.3884 54° Northeast 407 468 16,600 2,280 Climbing FlightAware ADS-B (YSSY / SYD)
04:30AM -33.6211 151.4491 55° Northeast 407 468 17,800 1,740 Climbing FlightAware ADS-B (YRPA)
04:31AM -33.5769 151.5232 54° Northeast 430 495 18,700 1,500 Climbing FlightAware ADS-B (YSSY / SYD)
04:31AM -33.5581 151.5547 54° Northeast 429 494 19,200 1,560 Climbing FlightAware ADS-B (YRPA)
04:31AM -33.5184 151.6210 54° Northeast 444 511 20,000 1,560 Climbing FlightAware ADS-B (YRAY)
04:32AM -33.4690 151.7034 54° Northeast 452 520 21,200 1,620 Climbing FlightAware ADS-B (YSSY / SYD)
04:33AM -33.4183 151.7882 54° Northeast 461 531 22,300 1,620 Climbing FlightAware ADS-B (YSSY / SYD)
04:33AM -33.3793 151.8536 54° Northeast 464 534 23,200 1,740 Climbing FlightAware ADS-B
04:34AM -33.3300 151.9361 54° Northeast 458 527 24,300 1,620 Climbing FlightAware ADS-B (YRPA)
04:35AM -33.2706 152.0346 54° Northeast 456 525 25,500 1,500 Climbing Aus ATC (RADAR)
04:35AM -33.2357 152.0929 54° Northeast 470 541 26,200 1,440 Climbing FlightAware ADS-B (YRPA)
04:36AM -33.1774 152.1895 54° Northeast 476 548 27,300 1,320 Climbing FlightAware ADS-B (YRPA)
04:37AM -33.1273 152.2724 54° Northeast 476 548 28,100 1,140 Climbing FlightAware ADS-B (YRPA)
04:37AM -33.0715 152.3641 54° Northeast 479 551 28,900 1,020 Climbing FlightAware ADS-B (YRPA)
04:38AM -33.0196 152.4495 54° Northeast 490 564 29,500 960 Climbing FlightAware ADS-B (YRPA)
04:39AM -32.9638 152.5412 54° Northeast 494 568 30,200 1,020 Climbing FlightAware ADS-B (YRPA)
04:39AM -32.9136 152.6234 54° Northeast 495 570 30,900 960 Climbing FlightAware ADS-B (YRPA)
04:40AM -32.8602 152.7115 54° Northeast 497 572 31,500 840 Climbing FlightAware ADS-B (YRPA)
04:41AM -32.8020 152.8070 54° Northeast 500 575 32,100 900 Climbing FlightAware ADS-B (YRPA)
04:41AM -32.7551 152.8834 54° Northeast 497 572 32,700 780 Climbing FlightAware ADS-B (YRPA)
04:42AM -32.6894 152.9898 54° Northeast 501 577 33,200 660 Climbing FlightAware ADS-B (YRPA)
04:43AM -32.6450 153.0615 54° Northeast 504 580 33,600 600 Climbing FlightAware ADS-B (YRPA)
04:43AM -32.5832 153.1610 54° Northeast 512 589 34,000 600 Climbing FlightAware ADS-B (YRPA)
04:44AM -32.5219 153.2600 54° Northeast 515 593 34,500 600 Climbing FlightAware ADS-B (YRPA)
04:45AM -32.4635 153.3542 54° Northeast 520 598 34,900 420 Climbing FlightAware ADS-B (YRPA)
04:45AM -32.4212 153.4219 54° Northeast 523 602 35,000 60 Climbing FlightAware ADS-B (YRPA)
04:46AM -32.3348 153.5601 54° Northeast 508 585 35,000  Level Aus ATC (RADAR)
04:46AM -32.3187 153.5855 54° Northeast 522 601 35,000  Level FlightAware ADS-B (YRPA)
04:47AM -32.2404 153.7101 54° Northeast 510 587 35,000  Level Aus ATC (RADAR)
04:48AM -32.1529 153.8484 53° Northeast 511 588 35,000  Level Aus ATC (RADAR)
04:49AM -32.1163 153.9059 53° Northeast 511 588 35,000  Level Aus ATC (RADAR)
04:49AM -32.0606 153.9946 53° Northeast 527 606 35,000  Level Aus ATC (RADAR)
04:50AM -32.0072 154.0790 53° Northeast 510 587 35,000  Level Aus ATC (RADAR)
04:51AM -31.9560 154.1594 53° Northeast 509 586 35,000  Level Aus ATC (RADAR)
04:51AM -31.8853 154.2702 53° Northeast 528 608 35,000  Level Aus ATC (RADAR)
04:52AM -31.8461 154.3318 53° Northeast 511 588 35,000  Level Aus ATC (RADAR)
04:52AM -31.7947 154.4120 53° Northeast 511 588 35,000  Level Aus ATC (RADAR)
04:54AM -31.6938 154.5697 53° Northeast 533 613 35,000  Level Aus ATC (RADAR)
04:54AM -31.6564 154.6275 53° Northeast 535 616 35,000  Level Aus ATC (RADAR)
04:55AM -31.6027 154.7109 53° Northeast 508 585 35,000  Level Aus ATC (RADAR)
04:55AM -31.5381 154.8107 53° Northeast 530 610 35,000  Level Aus ATC (RADAR)
04:56AM -31.4860 154.8910 53° Northeast 529 609 35,000  Level Aus ATC (RADAR)
04:57AM -31.4170 154.9970 53° Northeast 511 588 35,000  Level Aus ATC (RADAR)
04:57AM -31.3749 155.0623 53° Northeast 530 610 35,000  Level Aus ATC (RADAR)
04:58AM -31.3209 155.1452 53° Northeast 508 585 35,000  Level Aus ATC (RADAR)
04:59AM -31.2448 155.2591 52° Northeast 514 592 35,000  Level Aus ATC (RADAR)
04:59AM -31.2073 155.3159 52° Northeast 513 590 35,000  Level Aus ATC (RADAR)
04:59AM -31.1590 155.3920 53° Northeast 530 610 35,000  Level Aus ATC (RADAR)
05:00AM -31.0842 155.5054 52° Northeast 529 609 35,000  Level Aus ATC (RADAR)
05:01AM -31.0467 155.5621 52° Northeast 529 609 35,000  Level Aus ATC (RADAR)
05:02AM -30.9542 155.7016 52° Northeast 509 586 35,000  Level Aus ATC (RADAR)
05:02AM -30.9310 155.7360 52° Northeast 510 587 35,000  Level Aus ATC (RADAR)
05:03AM -30.8776 155.8159 52° Northeast 513 590 35,000  Level Aus ATC (RADAR)
05:04AM -30.7692 155.9713 51° Northeast 505 581 35,000  Level Aus ATC (RADAR)
05:04AM -30.7461 156.0009 48° Northeast 535 616 35,000  Level Aus ATC (RADAR)
05:05AM -30.6805 156.0881 49° Northeast 537 618 35,000  Level Aus ATC (RADAR)
05:05AM -30.5983 156.1965 49° Northeast 536 617 35,000  Level Aus ATC (RADAR)
05:06AM -30.5409 156.2719 49° Northeast 534 615 35,000  Level Aus ATC (RADAR)
05:07AM -30.4597 156.3790 49° Northeast 531 611 35,000  Level Aus ATC (RADAR)
05:07AM -30.4271 156.4216 48° Northeast 530 610 35,000  Level Aus ATC (RADAR)
05:08AM -30.3704 156.4961 49° Northeast 528 608 35,000 60 Level Aus ATC (RADAR)
05:09AM -30.2809 156.6129 48° Northeast 527 606 35,100 60 Climbing Aus ATC (RADAR)
05:09AM -30.2403 156.6658 48° Northeast 527 606 35,100  Level Aus ATC (RADAR)
05:10AM -30.1834 156.7395 48° Northeast 526 605 35,100  Level Aus ATC (RADAR)
05:10AM -30.1105 156.8346 48° Northeast 525 604 35,100 -120 Level Aus ATC (RADAR)
05:11AM -30.0536 156.9082 48° Northeast 526 605 35,000 -120 Descending Aus ATC (RADAR)
05:12AM -29.9728 157.0119 48° Northeast 521 600 35,000  Level Aus ATC (RADAR)
05:12AM -29.9263 157.0724 48° Northeast 513 590 35,000 60 Level Aus ATC (RADAR)
05:13AM -29.8711 157.1434 48° Northeast 510 587 35,100 60 Climbing Aus ATC (RADAR)
05:14AM -29.7952 157.2433 49° Northeast 501 577 35,100  Level Aus ATC (RADAR)
05:14AM -29.7471 157.3046 48° Northeast 506 582 35,100  Level Aus ATC (RADAR)
05:15AM -29.6924 157.3760 49° Northeast 509 586 35,100  Level Aus ATC (RADAR)
05:16AM -29.6262 157.4597 48° Northeast 518 596 35,100  Level Aus ATC (RADAR)
05:16AM -29.5681 157.5329 48° Northeast 523 602 35,100 -120 Level Aus ATC (RADAR)
05:17AM -29.4879 157.6360 48° Northeast 520 598 35,000 -120 Descending Aus ATC (RADAR)
05:17AM -29.4474 157.6870 48° Northeast 518 596 35,000 60 Level Aus ATC (RADAR)
05:18AM -29.3831 157.7675 47° Northeast 513 590 35,100 -240 Climbing Aus ATC (RADAR)
05:19AM -29.2835 157.8977 49° Northeast 501 577 34,600 -480 Descending Aus ATC (RADAR)
05:19AM -29.2614 157.9271 49° Northeast 499 574 34,500 -360 Descending Aus ATC (RADAR)
05:20AM -29.2040 157.9979 47° Northeast 504 580 34,300 -480 Descending Aus ATC (RADAR)
05:21AM -29.1258 158.0986 48° Northeast 506 582 33,900 -540 Descending Aus ATC (RADAR)
05:21AM -29.0667 158.1697 46° Northeast 510 587 33,600 -480 Descending Aus ATC (RADAR)
05:22AM -29.0420 158.1989 46° Northeast 511 588 33,500 -420 Descending Aus ATC (RADAR)
05:24AM -28.7474 158.5654 360° North 35,000 480 Climbing Aus ATC (Calculated)
05:25AM -28.7474 158.5654 47° Northeast 35,000  Level Aus ATC (Calculated)
05:27AM -28.5893 158.7608 47° Northeast  Level FlightAware Approximate
05:28AM -28.5045 158.8652 47° Northeast  Level FlightAware Approximate
05:28AM -28.4395 158.9451 47° Northeast 35,000  Level Aus ATC (Calculated)
05:30AM -28.2794 159.1410 47° Northeast  Level FlightAware Approximate
05:30AM -28.2268 159.2058 228° Southwest 35,000  Level Aus ATC (Calculated)
05:32AM -28.3644 159.0347 228° Southwest  Level FlightAware Approximate
05:33AM -28.2802 159.1396 48° Northeast  Level FlightAware Approximate
05:33AM -27.9769 159.5101 47° Northeast 35,000  Level Aus ATC (Calculated)
05:34AM -27.8846 159.6220 47° Northeast 35,000  Level Aus ATC (Calculated)
05:35AM -27.7951 159.7301 227° Southwest 35,000  Level Aus ATC (Calculated)
05:37AM -27.9360 159.5596 227° Southwest  Level FlightAware Approximate
05:37AM -27.6235 159.9368 40° Northeast 35,000  Level Aus ATC (Calculated)
05:39AM -27.4304 160.1169 47° Northeast  Level Estimated
05:40AM -27.3445 160.2213 47° Northeast  Level FlightAware Approximate
05:40AM -27.3376 160.2787 47° Northeast 35,000  Level Aus ATC (Calculated)
05:42AM -27.1654 160.4834 47° Northeast  Level FlightAware Approximate
05:42AM -27.1188 160.5385 47° Northeast 35,000  Level Aus ATC (Calculated)
05:44AM -26.9564 160.7304 47° Northeast  Level FlightAware Approximate
05:44AM -26.9201 160.7731 46° Northeast 35,000  Level Aus ATC (Calculated)
05:46AM -26.7574 160.9644 46° Northeast  Level FlightAware Approximate
05:46AM -26.7397 160.9850 46° Northeast 35,000  Level Aus ATC (Calculated)
05:48AM -26.5767 161.1756 46° Northeast  Level FlightAware Approximate
05:48AM -26.5760 161.1765 46° Northeast 35,000  Level Aus ATC (Calculated)
05:49AM -26.4885 161.2784 46° Northeast  Level FlightAware Approximate
05:50AM -26.4010 161.3801 46° Northeast  Level FlightAware Approximate
05:51AM -26.3134 161.4817 46° Northeast  Level FlightAware Approximate
05:52AM -26.2257 161.5831 46° Northeast  Level FlightAware Approximate
05:53AM -26.1380 161.6844 46° Northeast  Level FlightAware Approximate
05:54AM -26.0501 161.7856 46° Northeast  Level FlightAware Approximate
05:55AM -25.9622 161.8866 46° Northeast  Level FlightAware Approximate
05:56AM -25.8743 161.9874 46° Northeast  Level FlightAware Approximate
05:57AM -25.7862 162.0881 46° Northeast  Level FlightAware Approximate
05:58AM -25.6982 162.1886 46° Northeast  Level FlightAware Approximate
05:58AM -25.5811 162.3218 46° Northeast 35,000  Level Aus ATC (Calculated)
05:59AM -25.4928 162.4220 46° Northeast  Level FlightAware Approximate
06:00AM -25.4045 162.5221 46° Northeast  Level FlightAware Approximate
06:01AM -25.3161 162.6220 46° Northeast  Level FlightAware Approximate
06:02AM -25.2277 162.7217 46° Northeast  Level FlightAware Approximate
06:03AM -25.1391 162.8213 46° Northeast  Level FlightAware Approximate
06:04AM -25.0506 162.9208 45° Northeast  Level FlightAware Approximate
06:05AM -24.9619 163.0201 45° Northeast  Level FlightAware Approximate
06:06AM -25.0505 162.9208 225° Southwest  Level FlightAware Approximate
06:07AM -24.9619 163.0201 45° Northeast  Level FlightAware Approximate
06:08AM -25.0505 162.9208 225° Southwest  Level FlightAware Approximate
06:09AM -24.9619 163.0201 45° Northeast  Level FlightAware Approximate
06:10AM -25.0505 162.9208 225° Southwest  Level FlightAware Approximate
06:11AM -24.9619 163.0201 45° Northeast  Level FlightAware Approximate
06:12AM -25.0505 162.9208 225° Southwest  Level FlightAware Approximate
06:13AM -24.9619 163.0201 45° Northeast  Level FlightAware Approximate
06:14AM -25.0505 162.9208 225° Southwest  Level FlightAware Approximate
06:15AM -24.9619 163.0201 45° Northeast  Level FlightAware Approximate
06:16AM -24.9070 163.0813 45° Northeast  Level FlightAware Approximate
06:17AM -24.8182 163.1803 45° Northeast  Level FlightAware Approximate
06:18AM -24.7293 163.2792 45° Northeast  Level FlightAware Approximate
06:19AM -24.6403 163.3779 45° Northeast  Level FlightAware Approximate
06:20AM -24.5513 163.4765 45° Northeast  Level FlightAware Approximate
06:21AM -24.4622 163.5750 45° Northeast  Level FlightAware Approximate
06:22AM -24.3730 163.6733 45° Northeast  Level FlightAware Approximate
06:23AM -24.2838 163.7715 45° Northeast  Level FlightAware Approximate
06:24AM -24.1945 163.8695 45° Northeast  Level FlightAware Approximate
06:25AM -24.1052 163.9674 45° Northeast  Level FlightAware Approximate
06:26AM -24.0158 164.0651 45° Northeast  Level FlightAware Approximate
06:27AM -23.9263 164.1628 45° Northeast  Level FlightAware Approximate
06:28AM -23.8368 164.2603 45° Northeast  Level FlightAware Approximate
06:29AM -23.7472 164.3576 45° Northeast  Level FlightAware Approximate
06:30AM -23.6575 164.4548 45° Northeast  Level FlightAware Approximate
06:31AM -23.5678 164.5519 45° Northeast  Level FlightAware Approximate
06:32AM -23.4780 164.6488 45° Northeast  Level FlightAware Approximate
06:33AM -23.3882 164.7457 45° Northeast  Level FlightAware Approximate
06:34AM -23.2983 164.8423 45° Northeast  Level FlightAware Approximate
06:35AM -23.2083 164.9388 45° Northeast  Level FlightAware Approximate
06:36AM -23.1183 165.0352 45° Northeast  Level FlightAware Approximate
06:37AM -23.0282 165.1315 45° Northeast  Level FlightAware Approximate
06:38AM -22.9380 165.2277 44° Northeast  Level FlightAware Approximate
06:39AM -22.8478 165.3237 44° Northeast  Level FlightAware Approximate
06:40AM -22.7576 165.4196 44° Northeast  Level FlightAware Approximate
06:41AM -22.6672 165.5154 44° Northeast  Level FlightAware Approximate
06:42AM -22.5769 165.6110 44° Northeast  Level FlightAware Approximate
06:43AM -22.4864 165.7065 44° Northeast  Level FlightAware Approximate
06:44AM -22.3959 165.8019 44° Northeast  Level FlightAware Approximate
06:45AM -22.3054 165.8972 44° Northeast  Level FlightAware Approximate
06:46AM -22.2148 165.9923 44° Northeast  Level FlightAware Approximate
06:47AM -22.1241 166.0873 44° Northeast  Level FlightAware Approximate
06:48AM -22.0334 166.1822 44° Northeast  Level FlightAware Approximate
06:49AM -21.9257 166.2499 24° Northeast  Level FlightAware Approximate
06:50AM -21.8103 166.3053 24° Northeast  Level FlightAware Approximate
06:51AM -21.6948 166.3605 24° Northeast  Level FlightAware Approximate
06:52AM -21.5793 166.4157 24° Northeast  Level FlightAware Approximate
06:53AM -21.4639 166.4708 24° Northeast  Level FlightAware Approximate
06:54AM -21.3484 166.5258 24° Northeast  Level FlightAware Approximate
06:55AM -21.2328 166.5807 24° Northeast  Level FlightAware Approximate
06:56AM -21.1173 166.6355 24° Northeast  Level FlightAware Approximate
06:57AM -21.0017 166.6902 24° Northeast  Level FlightAware Approximate
06:58AM -20.8862 166.7449 24° Northeast  Level FlightAware Approximate
06:59AM -20.7706 166.7994 24° Northeast  Level FlightAware Approximate
07:00AM -20.6550 166.8539 24° Northeast  Level FlightAware Approximate
07:01AM -20.5394 166.9083 24° Northeast  Level FlightAware Approximate
07:02AM -20.4237 166.9626 24° Northeast  Level FlightAware Approximate
07:03AM -20.3081 167.0168 24° Northeast  Level FlightAware Approximate
07:04AM -20.1924 167.0710 24° Northeast  Level FlightAware Approximate
07:05AM -20.0767 167.1251 24° Northeast  Level FlightAware Approximate
07:06AM -19.9610 167.1791 24° Northeast  Level FlightAware Approximate
07:07AM -19.8453 167.2330 24° Northeast  Level FlightAware Approximate
07:08AM -19.7295 167.2868 24° Northeast  Level FlightAware Approximate
07:09AM -19.6138 167.3406 24° Northeast  Level FlightAware Approximate
07:10AM -19.4980 167.3943 24° Northeast  Level FlightAware Approximate
07:11AM -19.3824 167.4483 24° Northeast  Level FlightAware Approximate
07:12AM -19.2667 167.5022 24° Northeast  Level FlightAware Approximate
07:13AM -19.1511 167.5560 24° Northeast  Level FlightAware Approximate
07:14AM -19.0354 167.6097 24° Northeast  Level FlightAware Approximate
07:15AM -18.9197 167.6634 24° Northeast  Level FlightAware Approximate
07:16AM -18.8040 167.7170 24° Northeast  Level FlightAware Approximate
07:17AM -18.6882 167.7705 24° Northeast  Level FlightAware Approximate
07:18AM -18.5725 167.8240 24° Northeast  Level FlightAware Approximate
07:19AM -18.4568 167.8775 24° Northeast  Level FlightAware Approximate
07:20AM -18.3411 167.9311 24° Northeast  Level FlightAware Approximate
07:21AM -18.2255 167.9846 24° Northeast  Level FlightAware Approximate
07:22AM -18.1098 168.0380 24° Northeast  Level FlightAware Approximate
07:23AM -17.9940 168.0913 24° Northeast  Level FlightAware Approximate
07:24AM -17.8783 168.1446 24° Northeast  Level FlightAware Approximate
07:25AM -17.7626 168.1978 24° Northeast  Level FlightAware Approximate
07:26AM -17.6621 168.2439 24° Northeast  Level FlightAware Approximate
07:27AM -17.6993 168.3198 24° Northeast  Level Estimated
07:28AM -17.6993 168.3198 24° Northeast  Level Estimated
07:29AM -17.6993 168.3198 24° Northeast  Level Estimated
07:30AM -17.6993 168.3198 24° Northeast  Level Estimated
07:31AM -17.6993 168.3198 24° Northeast  Level Estimated
07:32AM -17.6993 168.3198 24° Northeast  Level Estimated
07:33AM -17.6993 168.3198 24° Northeast  Level Estimated
07:34AM -17.6993 168.3198 24° Northeast  Level Estimated